<?xml version="1.0" encoding="UTF-8" standalone="no" ?>
<gpx xmlns="http://www.topografix.com/GPX/1/1" xmlns:xsi="http://www.w3.org/2001/XMLSchema-instance" xsi:schemaLocation="http://www.topografix.com/GPX/1/1 http://www.topografix.com/GPX/1/1/gpx.xsd" version="1.1" creator="VisuGPX - https://www.visugpx.com">
  <metadata>
    <name>Montfaucon Château</name>
    <desc><![CDATA[Rando du jeudi. ]]></desc>
  </metadata>
  <trk>
    <name><![CDATA[Montfaucon Château]]></name>
    <trkseg>
      <trkpt lat="47.23695" lon="6.06319">
        <ele>266.198326</ele>
        <time>2022-01-18T08:01:42.985Z</time>
      </trkpt>
      <trkpt lat="47.237" lon="6.06323">
        <ele>266.198326</ele>
        <time>2022-01-18T08:01:49.918Z</time>
      </trkpt>
      <trkpt lat="47.23712" lon="6.06315">
        <ele>266.198326</ele>
        <time>2022-01-18T08:02:03.794Z</time>
      </trkpt>
      <trkpt lat="47.23719" lon="6.06324">
        <ele>266.198326</ele>
        <time>2022-01-18T08:02:14.037Z</time>
      </trkpt>
      <trkpt lat="47.23732" lon="6.06348">
        <ele>266.198326</ele>
        <time>2022-01-18T08:02:36.711Z</time>
      </trkpt>
      <trkpt lat="47.23752" lon="6.06367">
        <ele>266.198326</ele>
        <time>2022-01-18T08:03:01.849Z</time>
      </trkpt>
      <trkpt lat="47.23877" lon="6.06434">
        <ele>266.789417</ele>
        <time>2022-01-18T08:05:21.302Z</time>
      </trkpt>
      <trkpt lat="47.23976" lon="6.06512">
        <ele>267.354482</ele>
        <time>2022-01-18T08:07:14.841Z</time>
      </trkpt>
      <trkpt lat="47.24025" lon="6.06526">
        <ele>267.608042</ele>
        <time>2022-01-18T08:08:05.397Z</time>
      </trkpt>
      <trkpt lat="47.24071" lon="6.06584">
        <ele>267.917843</ele>
        <time>2022-01-18T08:09:08.945Z</time>
      </trkpt>
      <trkpt lat="47.24181" lon="6.06703">
        <ele>272.146655</ele>
        <time>2022-01-18T08:11:39.491Z</time>
      </trkpt>
      <trkpt lat="47.24182" lon="6.06704">
        <ele>272.208278</ele>
        <time>2022-01-18T08:11:43.710Z</time>
      </trkpt>
      <trkpt lat="47.24321" lon="6.06848">
        <ele>279.496361</ele>
        <time>2022-01-18T08:14:59.124Z</time>
      </trkpt>
      <trkpt lat="47.244" lon="6.06944">
        <ele>284.827085</ele>
        <time>2022-01-18T08:16:59.375Z</time>
      </trkpt>
      <trkpt lat="47.24485" lon="6.07027">
        <ele>291.184621</ele>
        <time>2022-01-18T08:19:07.245Z</time>
      </trkpt>
      <trkpt lat="47.24488" lon="6.07031">
        <ele>291.418568</ele>
        <time>2022-01-18T08:19:12.201Z</time>
      </trkpt>
      <trkpt lat="47.24506" lon="6.07063">
        <ele>293.194582</ele>
        <time>2022-01-18T08:19:45.085Z</time>
      </trkpt>
      <trkpt lat="47.24513" lon="6.07106">
        <ele>295.617472</ele>
        <time>2022-01-18T08:20:19.041Z</time>
      </trkpt>
      <trkpt lat="47.24518" lon="6.07121">
        <ele>296.746134</ele>
        <time>2022-01-18T08:20:34.260Z</time>
      </trkpt>
      <trkpt lat="47.24559" lon="6.07203">
        <ele>303.546327</ele>
        <time>2022-01-18T08:21:58.030Z</time>
      </trkpt>
      <trkpt lat="47.24557" lon="6.0722">
        <ele>304.743792</ele>
        <time>2022-01-18T08:22:14.522Z</time>
      </trkpt>
      <trkpt lat="47.24554" lon="6.07247">
        <ele>306.573089</ele>
        <time>2022-01-18T08:22:39.141Z</time>
      </trkpt>
      <trkpt lat="47.24562" lon="6.07281">
        <ele>309.016387</ele>
        <time>2022-01-18T08:23:15.791Z</time>
      </trkpt>
      <trkpt lat="47.24567" lon="6.0729">
        <ele>309.785335</ele>
        <time>2022-01-18T08:23:25.929Z</time>
      </trkpt>
      <trkpt lat="47.24602" lon="6.07308">
        <ele>315.21543</ele>
        <time>2022-01-18T08:24:25.862Z</time>
      </trkpt>
      <trkpt lat="47.24707" lon="6.07469">
        <ele>349.317091</ele>
        <time>2022-01-18T08:29:51.431Z</time>
      </trkpt>
      <trkpt lat="47.24721" lon="6.07508">
        <ele>356.481515</ele>
        <time>2022-01-18T08:31:08.930Z</time>
      </trkpt>
      <trkpt lat="47.24781" lon="6.07632">
        <ele>382.759485</ele>
        <time>2022-01-18T08:35:21.854Z</time>
      </trkpt>
      <trkpt lat="47.24828" lon="6.0771">
        <ele>399.578675</ele>
        <time>2022-01-18T08:37:53.308Z</time>
      </trkpt>
      <trkpt lat="47.24858" lon="6.07788">
        <ele>407.779097</ele>
        <time>2022-01-18T08:39:39.626Z</time>
      </trkpt>
      <trkpt lat="47.24875" lon="6.0781">
        <ele>410.933079</ele>
        <time>2022-01-18T08:40:16.015Z</time>
      </trkpt>
      <trkpt lat="47.24912" lon="6.07904">
        <ele>421.016921</ele>
        <time>2022-01-18T08:41:53.987Z</time>
      </trkpt>
      <trkpt lat="47.24915" lon="6.07929">
        <ele>423.01231</ele>
        <time>2022-01-18T08:42:14.592Z</time>
      </trkpt>
      <trkpt lat="47.24915" lon="6.07929">
        <ele>423.01231</ele>
        <time>2022-01-18T08:42:15.716Z</time>
      </trkpt>
      <trkpt lat="47.24893" lon="6.08025">
        <ele>427.942187</ele>
        <time>2022-01-18T08:43:39.910Z</time>
      </trkpt>
      <trkpt lat="47.24881" lon="6.08055">
        <ele>429.630165</ele>
        <time>2022-01-18T08:44:09.619Z</time>
      </trkpt>
      <trkpt lat="47.24845" lon="6.08117">
        <ele>433.627813</ele>
        <time>2022-01-18T08:45:18.590Z</time>
      </trkpt>
      <trkpt lat="47.24809" lon="6.0816">
        <ele>436.793875</ele>
        <time>2022-01-18T08:46:15.387Z</time>
      </trkpt>
      <trkpt lat="47.24795" lon="6.0816">
        <ele>437.691069</ele>
        <time>2022-01-18T08:46:32.342Z</time>
      </trkpt>
      <trkpt lat="47.24784" lon="6.08152">
        <ele>438.474988</ele>
        <time>2022-01-18T08:46:47.221Z</time>
      </trkpt>
      <trkpt lat="47.24757" lon="6.08114">
        <ele>440.901975</ele>
        <time>2022-01-18T08:47:33.766Z</time>
      </trkpt>
      <trkpt lat="47.24757" lon="6.08114">
        <ele>440.901975</ele>
        <time>2022-01-18T08:47:34.451Z</time>
      </trkpt>
      <trkpt lat="47.24757" lon="6.08114">
        <ele>440.901975</ele>
        <time>2022-01-18T08:47:35.476Z</time>
      </trkpt>
      <trkpt lat="47.24743" lon="6.08096">
        <ele>442.113842</ele>
        <time>2022-01-18T08:47:58.668Z</time>
      </trkpt>
      <trkpt lat="47.24608" lon="6.07979">
        <ele>449.650683</ele>
        <time>2022-01-18T08:51:07.941Z</time>
      </trkpt>
      <trkpt lat="47.24607" lon="6.07978">
        <ele>449.707504</ele>
        <time>2022-01-18T08:51:12.474Z</time>
      </trkpt>
      <trkpt lat="47.246" lon="6.07971">
        <ele>449.957599</ele>
        <time>2022-01-18T08:51:20.576Z</time>
      </trkpt>
      <trkpt lat="47.24596" lon="6.07926">
        <ele>450.965754</ele>
        <time>2022-01-18T08:51:52.968Z</time>
      </trkpt>
      <trkpt lat="47.246" lon="6.07909">
        <ele>451.373149</ele>
        <time>2022-01-18T08:52:05.663Z</time>
      </trkpt>
      <trkpt lat="47.24672" lon="6.07911">
        <ele>452.90284</ele>
        <time>2022-01-18T08:53:18.351Z</time>
      </trkpt>
      <trkpt lat="47.24676" lon="6.07911">
        <ele>452.894964</ele>
        <time>2022-01-18T08:53:22.152Z</time>
      </trkpt>
      <trkpt lat="47.24711" lon="6.07914">
        <ele>452.816916</ele>
        <time>2022-01-18T08:53:57.592Z</time>
      </trkpt>
      <trkpt lat="47.24732" lon="6.0794">
        <ele>452.755092</ele>
        <time>2022-01-18T08:54:25.726Z</time>
      </trkpt>
      <trkpt lat="47.24793" lon="6.07983">
        <ele>452.603367</ele>
        <time>2022-01-18T08:55:34.062Z</time>
      </trkpt>
      <trkpt lat="47.24803" lon="6.08001">
        <ele>452.567204</ele>
        <time>2022-01-18T08:55:50.814Z</time>
      </trkpt>
      <trkpt lat="47.24804" lon="6.08002">
        <ele>452.563773</ele>
        <time>2022-01-18T08:55:53.226Z</time>
      </trkpt>
      <trkpt lat="47.24824" lon="6.07999">
        <ele>452.831324</ele>
        <time>2022-01-18T08:56:15.902Z</time>
      </trkpt>
      <trkpt lat="47.24831" lon="6.07974">
        <ele>453.170682</ele>
        <time>2022-01-18T08:56:35.013Z</time>
      </trkpt>
      <trkpt lat="47.24808" lon="6.07943">
        <ele>453.763499</ele>
        <time>2022-01-18T08:57:09.533Z</time>
      </trkpt>
      <trkpt lat="47.24772" lon="6.07913">
        <ele>454.533917</ele>
        <time>2022-01-18T08:57:55.051Z</time>
      </trkpt>
      <trkpt lat="47.24755" lon="6.07909">
        <ele>454.852126</ele>
        <time>2022-01-18T08:58:16.677Z</time>
      </trkpt>
      <trkpt lat="47.24751" lon="6.07908">
        <ele>454.922477</ele>
        <time>2022-01-18T08:58:20.411Z</time>
      </trkpt>
      <trkpt lat="47.24728" lon="6.07901">
        <ele>455.362539</ele>
        <time>2022-01-18T08:58:45.602Z</time>
      </trkpt>
      <trkpt lat="47.24716" lon="6.07904">
        <ele>455.595301</ele>
        <time>2022-01-18T08:59:00.443Z</time>
      </trkpt>
      <trkpt lat="47.24704" lon="6.07893">
        <ele>455.859235</ele>
        <time>2022-01-18T08:59:14.650Z</time>
      </trkpt>
      <trkpt lat="47.24689" lon="6.07886">
        <ele>455.81635</ele>
        <time>2022-01-18T08:59:30.837Z</time>
      </trkpt>
      <trkpt lat="47.24672" lon="6.0789">
        <ele>455.672871</ele>
        <time>2022-01-18T08:59:48.745Z</time>
      </trkpt>
      <trkpt lat="47.24652" lon="6.07885">
        <ele>455.506076</ele>
        <time>2022-01-18T09:00:09.459Z</time>
      </trkpt>
      <trkpt lat="47.24642" lon="6.07882">
        <ele>455.421821</ele>
        <time>2022-01-18T09:00:20.310Z</time>
      </trkpt>
      <trkpt lat="47.24635" lon="6.07873">
        <ele>455.346816</ele>
        <time>2022-01-18T09:00:30.244Z</time>
      </trkpt>
      <trkpt lat="47.24576" lon="6.0785">
        <ele>454.84871</ele>
        <time>2022-01-18T09:01:32.500Z</time>
      </trkpt>
      <trkpt lat="47.24552" lon="6.07846">
        <ele>454.649484</ele>
        <time>2022-01-18T09:01:57.486Z</time>
      </trkpt>
      <trkpt lat="47.24528" lon="6.0783">
        <ele>454.450585</ele>
        <time>2022-01-18T09:02:24.046Z</time>
      </trkpt>
      <trkpt lat="47.24512" lon="6.07834">
        <ele>454.828276</ele>
        <time>2022-01-18T09:02:41.155Z</time>
      </trkpt>
      <trkpt lat="47.24498" lon="6.07836">
        <ele>455.144049</ele>
        <time>2022-01-18T09:02:55.721Z</time>
      </trkpt>
      <trkpt lat="47.24498" lon="6.07836">
        <ele>455.144049</ele>
        <time>2022-01-18T09:02:55.918Z</time>
      </trkpt>
      <trkpt lat="47.24497" lon="6.07845">
        <ele>455.273186</ele>
        <time>2022-01-18T09:03:01.669Z</time>
      </trkpt>
      <trkpt lat="47.24508" lon="6.07854">
        <ele>455.558894</ele>
        <time>2022-01-18T09:03:14.626Z</time>
      </trkpt>
      <trkpt lat="47.24551" lon="6.07885">
        <ele>456.660041</ele>
        <time>2022-01-18T09:04:04.119Z</time>
      </trkpt>
      <trkpt lat="47.246" lon="6.07909">
        <ele>457.837752</ele>
        <time>2022-01-18T09:05:01.783Z</time>
      </trkpt>
      <trkpt lat="47.24596" lon="6.07926">
        <ele>458.123504</ele>
        <time>2022-01-18T09:05:15.792Z</time>
      </trkpt>
      <trkpt lat="47.246" lon="6.07971">
        <ele>459.749</ele>
        <time>2022-01-18T09:05:54.947Z</time>
      </trkpt>
      <trkpt lat="47.24607" lon="6.07978">
        <ele>460.521372</ele>
        <time>2022-01-18T09:06:04.570Z</time>
      </trkpt>
      <trkpt lat="47.2461" lon="6.07993">
        <ele>461.591761</ele>
        <time>2022-01-18T09:06:19.380Z</time>
      </trkpt>
      <trkpt lat="47.24616" lon="6.08027">
        <ele>464.033962</ele>
        <time>2022-01-18T09:06:51.124Z</time>
      </trkpt>
      <trkpt lat="47.24655" lon="6.08133">
        <ele>472.278929</ele>
        <time>2022-01-18T09:08:42.159Z</time>
      </trkpt>
      <trkpt lat="47.24686" lon="6.08242">
        <ele>480.848284</ele>
        <time>2022-01-18T09:10:36.764Z</time>
      </trkpt>
      <trkpt lat="47.2469" lon="6.08362">
        <ele>490.08969</ele>
        <time>2022-01-18T09:12:31.704Z</time>
      </trkpt>
      <trkpt lat="47.24696" lon="6.08396">
        <ele>492.821873</ele>
        <time>2022-01-18T09:13:06.011Z</time>
      </trkpt>
      <trkpt lat="47.24742" lon="6.08477">
        <ele>499.992823</ele>
        <time>2022-01-18T09:14:41.807Z</time>
      </trkpt>
      <trkpt lat="47.24796" lon="6.08522">
        <ele>505.245123</ele>
        <time>2022-01-18T09:16:04.791Z</time>
      </trkpt>
      <trkpt lat="47.24841" lon="6.08548">
        <ele>509.289911</ele>
        <time>2022-01-18T09:17:05.563Z</time>
      </trkpt>
      <trkpt lat="47.24877" lon="6.08589">
        <ele>512.756255</ele>
        <time>2022-01-18T09:18:01.036Z</time>
      </trkpt>
      <trkpt lat="47.24908" lon="6.08601">
        <ele>514.034846</ele>
        <time>2022-01-18T09:18:36.037Z</time>
      </trkpt>
      <trkpt lat="47.24908" lon="6.08601">
        <ele>514.034846</ele>
        <time>2022-01-18T09:18:38.913Z</time>
      </trkpt>
      <trkpt lat="47.24932" lon="6.08606">
        <ele>515.004529</ele>
        <time>2022-01-18T09:19:04.436Z</time>
      </trkpt>
      <trkpt lat="47.24948" lon="6.08598">
        <ele>515.68561</ele>
        <time>2022-01-18T09:19:23.479Z</time>
      </trkpt>
      <trkpt lat="47.24964" lon="6.08598">
        <ele>516.34616</ele>
        <time>2022-01-18T09:19:40.832Z</time>
      </trkpt>
      <trkpt lat="47.24982" lon="6.08583">
        <ele>517.174633</ele>
        <time>2022-01-18T09:20:03.152Z</time>
      </trkpt>
      <trkpt lat="47.24989" lon="6.08581">
        <ele>517.456694</ele>
        <time>2022-01-18T09:20:11.064Z</time>
      </trkpt>
      <trkpt lat="47.25015" lon="6.0858">
        <ele>518.501728</ele>
        <time>2022-01-18T09:20:41.277Z</time>
      </trkpt>
      <trkpt lat="47.25055" lon="6.08554">
        <ele>521.214608</ele>
        <time>2022-01-18T09:21:33.390Z</time>
      </trkpt>
      <trkpt lat="47.25094" lon="6.08502">
        <ele>526.317303</ele>
        <time>2022-01-18T09:22:32.582Z</time>
      </trkpt>
      <trkpt lat="47.25103" lon="6.08502">
        <ele>527.17463</ele>
        <time>2022-01-18T09:22:43.972Z</time>
      </trkpt>
      <trkpt lat="47.25104" lon="6.08503">
        <ele>527.301419</ele>
        <time>2022-01-18T09:22:45.446Z</time>
      </trkpt>
      <trkpt lat="47.25121" lon="6.0852">
        <ele>529.269742</ele>
        <time>2022-01-18T09:23:12.189Z</time>
      </trkpt>
      <trkpt lat="47.25128" lon="6.08536">
        <ele>530.539747</ele>
        <time>2022-01-18T09:23:31.840Z</time>
      </trkpt>
      <trkpt lat="47.25112" lon="6.08586">
        <ele>534.115623</ele>
        <time>2022-01-18T09:24:28.702Z</time>
      </trkpt>
      <trkpt lat="47.25115" lon="6.08613">
        <ele>535.948979</ele>
        <time>2022-01-18T09:24:54.510Z</time>
      </trkpt>
      <trkpt lat="47.2511" lon="6.08633">
        <ele>537.595598</ele>
        <time>2022-01-18T09:25:23.721Z</time>
      </trkpt>
      <trkpt lat="47.25091" lon="6.08666">
        <ele>542.609712</ele>
        <time>2022-01-18T09:26:13.555Z</time>
      </trkpt>
      <trkpt lat="47.25068" lon="6.08686">
        <ele>547.11058</ele>
        <time>2022-01-18T09:27:03.424Z</time>
      </trkpt>
      <trkpt lat="47.25069" lon="6.08684">
        <ele>547.392075</ele>
        <time>2022-01-18T09:27:06.753Z</time>
      </trkpt>
      <trkpt lat="47.25068" lon="6.08686">
        <ele>547.67357</ele>
        <time>2022-01-18T09:27:13.398Z</time>
      </trkpt>
      <trkpt lat="47.25053" lon="6.08701">
        <ele>550.836278</ele>
        <time>2022-01-18T09:27:49.538Z</time>
      </trkpt>
      <trkpt lat="47.25016" lon="6.08716">
        <ele>557.343048</ele>
        <time>2022-01-18T09:28:58.639Z</time>
      </trkpt>
      <trkpt lat="47.25008" lon="6.0872">
        <ele>558.800179</ele>
        <time>2022-01-18T09:29:13.203Z</time>
      </trkpt>
      <trkpt lat="47.24904" lon="6.08748">
        <ele>574.715615</ele>
        <time>2022-01-18T09:32:20.173Z</time>
      </trkpt>
      <trkpt lat="47.2489" lon="6.08746">
        <ele>576.474015</ele>
        <time>2022-01-18T09:32:43.795Z</time>
      </trkpt>
      <trkpt lat="47.24877" lon="6.08731">
        <ele>578.657348</ele>
        <time>2022-01-18T09:33:08.359Z</time>
      </trkpt>
      <trkpt lat="47.24861" lon="6.08725">
        <ele>580.850818</ele>
        <time>2022-01-18T09:33:34.189Z</time>
      </trkpt>
      <trkpt lat="47.2485" lon="6.08728">
        <ele>582.208369</ele>
        <time>2022-01-18T09:33:49.356Z</time>
      </trkpt>
      <trkpt lat="47.24836" lon="6.08732">
        <ele>584.123349</ele>
        <time>2022-01-18T09:34:08.931Z</time>
      </trkpt>
      <trkpt lat="47.24817" lon="6.08746">
        <ele>586.883889</ele>
        <time>2022-01-18T09:34:39.460Z</time>
      </trkpt>
      <trkpt lat="47.24767" lon="6.08849">
        <ele>593.694276</ele>
        <time>2022-01-18T09:36:30.817Z</time>
      </trkpt>
      <trkpt lat="47.2475" lon="6.08868">
        <ele>594.642073</ele>
        <time>2022-01-18T09:36:55.915Z</time>
      </trkpt>
      <trkpt lat="47.2469" lon="6.08877">
        <ele>597.36808</ele>
        <time>2022-01-18T09:38:03.626Z</time>
      </trkpt>
      <trkpt lat="47.24648" lon="6.08892">
        <ele>599.321098</ele>
        <time>2022-01-18T09:38:48.385Z</time>
      </trkpt>
      <trkpt lat="47.2461" lon="6.08913">
        <ele>599.444619</ele>
        <time>2022-01-18T09:39:29.747Z</time>
      </trkpt>
      <trkpt lat="47.24596" lon="6.08926">
        <ele>599.436823</ele>
        <time>2022-01-18T09:39:46.963Z</time>
      </trkpt>
      <trkpt lat="47.2458" lon="6.08908">
        <ele>599.427322</ele>
        <time>2022-01-18T09:40:08.110Z</time>
      </trkpt>
      <trkpt lat="47.2458" lon="6.0891">
        <ele>599.42668</ele>
        <time>2022-01-18T09:40:09.758Z</time>
      </trkpt>
      <trkpt lat="47.2458" lon="6.08908">
        <ele>599.426039</ele>
        <time>2022-01-18T09:40:11.519Z</time>
      </trkpt>
      <trkpt lat="47.24461" lon="6.0876">
        <ele>599.517751</ele>
        <time>2022-01-18T09:42:47.004Z</time>
      </trkpt>
      <trkpt lat="47.24461" lon="6.0876">
        <ele>599.517751</ele>
        <time>2022-01-18T09:42:47.479Z</time>
      </trkpt>
      <trkpt lat="47.24461" lon="6.08743">
        <ele>599.54848</ele>
        <time>2022-01-18T09:43:00.422Z</time>
      </trkpt>
      <trkpt lat="47.24477" lon="6.08701">
        <ele>599.632592</ele>
        <time>2022-01-18T09:43:33.218Z</time>
      </trkpt>
      <trkpt lat="47.24522" lon="6.08585">
        <ele>599.722842</ele>
        <time>2022-01-18T09:45:05.995Z</time>
      </trkpt>
      <trkpt lat="47.24522" lon="6.08585">
        <ele>599.722842</ele>
        <time>2022-01-18T09:45:06.277Z</time>
      </trkpt>
      <trkpt lat="47.24524" lon="6.08577">
        <ele>599.634411</ele>
        <time>2022-01-18T09:45:12.180Z</time>
      </trkpt>
      <trkpt lat="47.24433" lon="6.08458">
        <ele>597.796784</ele>
        <time>2022-01-18T09:47:15.261Z</time>
      </trkpt>
      <trkpt lat="47.24226" lon="6.08284">
        <ele>587.54034</ele>
        <time>2022-01-18T09:51:33.930Z</time>
      </trkpt>
      <trkpt lat="47.23957" lon="6.0799">
        <ele>552.31791</ele>
        <time>2022-01-18T09:58:22.219Z</time>
      </trkpt>
      <trkpt lat="47.23858" lon="6.07892">
        <ele>539.59525</ele>
        <time>2022-01-18T10:00:46.646Z</time>
      </trkpt>
      <trkpt lat="47.23833" lon="6.07874">
        <ele>536.6283</ele>
        <time>2022-01-18T10:01:19.769Z</time>
      </trkpt>
      <trkpt lat="47.23795" lon="6.07872">
        <ele>532.538519</ele>
        <time>2022-01-18T10:02:05.999Z</time>
      </trkpt>
      <trkpt lat="47.23705" lon="6.07895">
        <ele>523.799968</ele>
        <time>2022-01-18T10:03:55.373Z</time>
      </trkpt>
      <trkpt lat="47.23688" lon="6.07893">
        <ele>522.115165</ele>
        <time>2022-01-18T10:04:15.733Z</time>
      </trkpt>
      <trkpt lat="47.23683" lon="6.07887">
        <ele>521.54815</ele>
        <time>2022-01-18T10:04:23.189Z</time>
      </trkpt>
      <trkpt lat="47.23682" lon="6.07884">
        <ele>521.330391</ele>
        <time>2022-01-18T10:04:26.762Z</time>
      </trkpt>
      <trkpt lat="47.23681" lon="6.07861">
        <ele>519.813008</ele>
        <time>2022-01-18T10:04:45.152Z</time>
      </trkpt>
      <trkpt lat="47.23685" lon="6.07852">
        <ele>519.120737</ele>
        <time>2022-01-18T10:04:53.352Z</time>
      </trkpt>
      <trkpt lat="47.23718" lon="6.07815">
        <ele>515.101294</ele>
        <time>2022-01-18T10:05:42.576Z</time>
      </trkpt>
      <trkpt lat="47.23721" lon="6.07806">
        <ele>514.559108</ele>
        <time>2022-01-18T10:05:51.180Z</time>
      </trkpt>
      <trkpt lat="47.23772" lon="6.07753">
        <ele>509.892677</ele>
        <time>2022-01-18T10:07:04.402Z</time>
      </trkpt>
      <trkpt lat="47.23778" lon="6.07736">
        <ele>508.930824</ele>
        <time>2022-01-18T10:07:20.764Z</time>
      </trkpt>
      <trkpt lat="47.23779" lon="6.07734">
        <ele>508.826688</ele>
        <time>2022-01-18T10:07:22.605Z</time>
      </trkpt>
      <trkpt lat="47.23781" lon="6.07688">
        <ele>506.504713</ele>
        <time>2022-01-18T10:07:57.954Z</time>
      </trkpt>
      <trkpt lat="47.23778" lon="6.07673">
        <ele>505.738936</ele>
        <time>2022-01-18T10:08:09.597Z</time>
      </trkpt>
      <trkpt lat="47.23783" lon="6.07665">
        <ele>505.147942</ele>
        <time>2022-01-18T10:08:18.253Z</time>
      </trkpt>
      <trkpt lat="47.2379" lon="6.07657">
        <ele>504.525583</ele>
        <time>2022-01-18T10:08:27.330Z</time>
      </trkpt>
      <trkpt lat="47.23791" lon="6.07655">
        <ele>504.409116</ele>
        <time>2022-01-18T10:08:29.318Z</time>
      </trkpt>
      <trkpt lat="47.23801" lon="6.07613">
        <ele>502.148624</ele>
        <time>2022-01-18T10:09:03.639Z</time>
      </trkpt>
      <trkpt lat="47.23818" lon="6.07573">
        <ele>500.467293</ele>
        <time>2022-01-18T10:09:39.537Z</time>
      </trkpt>
      <trkpt lat="47.23878" lon="6.0755">
        <ele>497.74672</ele>
        <time>2022-01-18T10:10:47.428Z</time>
      </trkpt>
      <trkpt lat="47.23956" lon="6.07478">
        <ele>493.66992</ele>
        <time>2022-01-18T10:12:25.420Z</time>
      </trkpt>
      <trkpt lat="47.24015" lon="6.07455">
        <ele>489.895178</ele>
        <time>2022-01-18T10:13:32.492Z</time>
      </trkpt>
      <trkpt lat="47.24155" lon="6.07499">
        <ele>479.977478</ele>
        <time>2022-01-18T10:16:15.626Z</time>
      </trkpt>
      <trkpt lat="47.24155" lon="6.07499">
        <ele>479.977478</ele>
        <time>2022-01-18T10:16:18.021Z</time>
      </trkpt>
      <trkpt lat="47.24193" lon="6.07486">
        <ele>475.78275</ele>
        <time>2022-01-18T10:17:03.251Z</time>
      </trkpt>
      <trkpt lat="47.24251" lon="6.07497">
        <ele>469.563641</ele>
        <time>2022-01-18T10:18:15.480Z</time>
      </trkpt>
      <trkpt lat="47.24254" lon="6.07481">
        <ele>468.328706</ele>
        <time>2022-01-18T10:18:30.775Z</time>
      </trkpt>
      <trkpt lat="47.24251" lon="6.07441">
        <ele>465.41284</ele>
        <time>2022-01-18T10:19:03.895Z</time>
      </trkpt>
      <trkpt lat="47.24287" lon="6.07393">
        <ele>460.200444</ele>
        <time>2022-01-18T10:20:03.558Z</time>
      </trkpt>
      <trkpt lat="47.24304" lon="6.07357">
        <ele>457.028061</ele>
        <time>2022-01-18T10:20:39.207Z</time>
      </trkpt>
      <trkpt lat="47.24247" lon="6.0729">
        <ele>449.212396</ele>
        <time>2022-01-18T10:22:07.263Z</time>
      </trkpt>
      <trkpt lat="47.24206" lon="6.07264">
        <ele>444.429818</ele>
        <time>2022-01-18T10:23:01.522Z</time>
      </trkpt>
      <trkpt lat="47.24195" lon="6.07245">
        <ele>442.859166</ele>
        <time>2022-01-18T10:23:23.137Z</time>
      </trkpt>
      <trkpt lat="47.24139" lon="6.07201">
        <ele>437.676707</ele>
        <time>2022-01-18T10:24:36.438Z</time>
      </trkpt>
      <trkpt lat="47.24116" lon="6.07172">
        <ele>435.209071</ele>
        <time>2022-01-18T10:25:11.073Z</time>
      </trkpt>
      <trkpt lat="47.24022" lon="6.07095">
        <ele>426.353941</ele>
        <time>2022-01-18T10:27:13.932Z</time>
      </trkpt>
      <trkpt lat="47.23934" lon="6.06948">
        <ele>414.905854</ele>
        <time>2022-01-18T10:29:51.767Z</time>
      </trkpt>
      <trkpt lat="47.23916" lon="6.06928">
        <ele>413.525627</ele>
        <time>2022-01-18T10:30:18.870Z</time>
      </trkpt>
      <trkpt lat="47.23894" lon="6.06921">
        <ele>413.177806</ele>
        <time>2022-01-18T10:30:44.306Z</time>
      </trkpt>
      <trkpt lat="47.23845" lon="6.06921">
        <ele>412.376913</ele>
        <time>2022-01-18T10:31:39.330Z</time>
      </trkpt>
      <trkpt lat="47.23814" lon="6.06956">
        <ele>411.751991</ele>
        <time>2022-01-18T10:32:19.021Z</time>
      </trkpt>
      <trkpt lat="47.23805" lon="6.07002">
        <ele>411.231039</ele>
        <time>2022-01-18T10:32:53.322Z</time>
      </trkpt>
      <trkpt lat="47.2378" lon="6.07044">
        <ele>411.70997</ele>
        <time>2022-01-18T10:33:37.929Z</time>
      </trkpt>
      <trkpt lat="47.23734" lon="6.07077">
        <ele>416.59668</ele>
        <time>2022-01-18T10:34:47.084Z</time>
      </trkpt>
      <trkpt lat="47.23705" lon="6.07084">
        <ele>419.370083</ele>
        <time>2022-01-18T10:35:28.813Z</time>
      </trkpt>
      <trkpt lat="47.23622" lon="6.07156">
        <ele>427.587065</ele>
        <time>2022-01-18T10:37:46.710Z</time>
      </trkpt>
      <trkpt lat="47.23607" lon="6.07152">
        <ele>427.246877</ele>
        <time>2022-01-18T10:38:05.058Z</time>
      </trkpt>
      <trkpt lat="47.23587" lon="6.07132">
        <ele>426.674021</ele>
        <time>2022-01-18T10:38:33.912Z</time>
      </trkpt>
      <trkpt lat="47.23568" lon="6.07084">
        <ele>425.785789</ele>
        <time>2022-01-18T10:39:12.446Z</time>
      </trkpt>
      <trkpt lat="47.23555" lon="6.0707">
        <ele>425.418693</ele>
        <time>2022-01-18T10:39:29.650Z</time>
      </trkpt>
      <trkpt lat="47.23547" lon="6.07064">
        <ele>425.192767</ele>
        <time>2022-01-18T10:39:40.301Z</time>
      </trkpt>
      <trkpt lat="47.23545" lon="6.07063">
        <ele>425.151491</ele>
        <time>2022-01-18T10:39:42.170Z</time>
      </trkpt>
      <trkpt lat="47.23545" lon="6.07049">
        <ele>424.92765</ele>
        <time>2022-01-18T10:39:53.641Z</time>
      </trkpt>
      <trkpt lat="47.23532" lon="6.07017">
        <ele>424.342713</ele>
        <time>2022-01-18T10:40:22.822Z</time>
      </trkpt>
      <trkpt lat="47.23457" lon="6.06852">
        <ele>409.685265</ele>
        <time>2022-01-18T10:43:09.387Z</time>
      </trkpt>
      <trkpt lat="47.23431" lon="6.06805">
        <ele>404.057529</ele>
        <time>2022-01-18T10:44:02.785Z</time>
      </trkpt>
      <trkpt lat="47.23376" lon="6.06707">
        <ele>392.563463</ele>
        <time>2022-01-18T10:45:59.303Z</time>
      </trkpt>
      <trkpt lat="47.2336" lon="6.06639">
        <ele>386.24875</ele>
        <time>2022-01-18T10:46:58.673Z</time>
      </trkpt>
      <trkpt lat="47.23342" lon="6.06611">
        <ele>382.870129</ele>
        <time>2022-01-18T10:47:31.106Z</time>
      </trkpt>
      <trkpt lat="47.23338" lon="6.06603">
        <ele>382.04251</ele>
        <time>2022-01-18T10:47:38.713Z</time>
      </trkpt>
      <trkpt lat="47.23326" lon="6.06606">
        <ele>380.469159</ele>
        <time>2022-01-18T10:47:53.219Z</time>
      </trkpt>
      <trkpt lat="47.23309" lon="6.06629">
        <ele>377.517468</ele>
        <time>2022-01-18T10:48:21.850Z</time>
      </trkpt>
      <trkpt lat="47.23248" lon="6.06719">
        <ele>371.284905</ele>
        <time>2022-01-18T10:50:06.811Z</time>
      </trkpt>
      <trkpt lat="47.23196" lon="6.06751">
        <ele>367.914365</ele>
        <time>2022-01-18T10:51:08.574Z</time>
      </trkpt>
      <trkpt lat="47.23173" lon="6.06757">
        <ele>366.507626</ele>
        <time>2022-01-18T10:51:32.008Z</time>
      </trkpt>
      <trkpt lat="47.23149" lon="6.06796">
        <ele>364.775362</ele>
        <time>2022-01-18T10:52:07.881Z</time>
      </trkpt>
      <trkpt lat="47.23113" lon="6.06802">
        <ele>364.563909</ele>
        <time>2022-01-18T10:52:44.838Z</time>
      </trkpt>
      <trkpt lat="47.23027" lon="6.06762">
        <ele>364.039007</ele>
        <time>2022-01-18T10:54:15.186Z</time>
      </trkpt>
      <trkpt lat="47.23005" lon="6.06761">
        <ele>363.910923</ele>
        <time>2022-01-18T10:54:37.384Z</time>
      </trkpt>
      <trkpt lat="47.22974" lon="6.06742">
        <ele>363.455688</ele>
        <time>2022-01-18T10:55:11.717Z</time>
      </trkpt>
      <trkpt lat="47.22974" lon="6.06742">
        <ele>363.455688</ele>
        <time>2022-01-18T10:55:11.761Z</time>
      </trkpt>
      <trkpt lat="47.22916" lon="6.06731">
        <ele>361.626995</ele>
        <time>2022-01-18T10:56:12.179Z</time>
      </trkpt>
      <trkpt lat="47.22901" lon="6.06723">
        <ele>361.106679</ele>
        <time>2022-01-18T10:56:30.058Z</time>
      </trkpt>
      <trkpt lat="47.22846" lon="6.06707">
        <ele>359.355958</ele>
        <time>2022-01-18T10:57:29.241Z</time>
      </trkpt>
      <trkpt lat="47.22814" lon="6.06662">
        <ele>357.820022</ele>
        <time>2022-01-18T10:58:18.807Z</time>
      </trkpt>
      <trkpt lat="47.22814" lon="6.06662">
        <ele>357.820022</ele>
        <time>2022-01-18T10:58:19.442Z</time>
      </trkpt>
      <trkpt lat="47.22773" lon="6.06629">
        <ele>355.316752</ele>
        <time>2022-01-18T10:59:11.121Z</time>
      </trkpt>
      <trkpt lat="47.22799" lon="6.06619">
        <ele>353.893973</ele>
        <time>2022-01-18T10:59:40.603Z</time>
      </trkpt>
      <trkpt lat="47.22845" lon="6.06585">
        <ele>351.120587</ele>
        <time>2022-01-18T11:00:37.726Z</time>
      </trkpt>
      <trkpt lat="47.22867" lon="6.0657">
        <ele>349.805484</ele>
        <time>2022-01-18T11:01:05.122Z</time>
      </trkpt>
      <trkpt lat="47.22882" lon="6.0656">
        <ele>348.901691</ele>
        <time>2022-01-18T11:01:23.402Z</time>
      </trkpt>
      <trkpt lat="47.22885" lon="6.06559">
        <ele>348.76112</ele>
        <time>2022-01-18T11:01:26.489Z</time>
      </trkpt>
      <trkpt lat="47.22918" lon="6.06562">
        <ele>345.763533</ele>
        <time>2022-01-18T11:02:03.008Z</time>
      </trkpt>
      <trkpt lat="47.22951" lon="6.06553">
        <ele>342.425232</ele>
        <time>2022-01-18T11:02:39.922Z</time>
      </trkpt>
      <trkpt lat="47.22991" lon="6.06551">
        <ele>338.44803</ele>
        <time>2022-01-18T11:03:27.995Z</time>
      </trkpt>
      <trkpt lat="47.22991" lon="6.06551">
        <ele>338.44803</ele>
        <time>2022-01-18T11:03:28.247Z</time>
      </trkpt>
      <trkpt lat="47.23065" lon="6.06547">
        <ele>331.125019</ele>
        <time>2022-01-18T11:05:01.682Z</time>
      </trkpt>
      <trkpt lat="47.23107" lon="6.06565">
        <ele>323.583742</ele>
        <time>2022-01-18T11:05:57.182Z</time>
      </trkpt>
      <trkpt lat="47.23122" lon="6.0658">
        <ele>320.287855</ele>
        <time>2022-01-18T11:06:18.380Z</time>
      </trkpt>
      <trkpt lat="47.23122" lon="6.0658">
        <ele>320.287855</ele>
        <time>2022-01-18T11:06:20.284Z</time>
      </trkpt>
      <trkpt lat="47.23122" lon="6.0658">
        <ele>320.287855</ele>
        <time>2022-01-18T11:06:21.604Z</time>
      </trkpt>
      <trkpt lat="47.23127" lon="6.06578">
        <ele>319.292633</ele>
        <time>2022-01-18T11:06:35.201Z</time>
      </trkpt>
      <trkpt lat="47.23135" lon="6.06558">
        <ele>316.381164</ele>
        <time>2022-01-18T11:06:55.035Z</time>
      </trkpt>
      <trkpt lat="47.23135" lon="6.0649">
        <ele>308.00633</ele>
        <time>2022-01-18T11:07:57.898Z</time>
      </trkpt>
      <trkpt lat="47.23138" lon="6.06472">
        <ele>305.686688</ele>
        <time>2022-01-18T11:08:23.134Z</time>
      </trkpt>
      <trkpt lat="47.2316" lon="6.06417">
        <ele>297.788699</ele>
        <time>2022-01-18T11:09:29.706Z</time>
      </trkpt>
      <trkpt lat="47.23194" lon="6.06367">
        <ele>290.423534</ele>
        <time>2022-01-18T11:10:41.661Z</time>
      </trkpt>
      <trkpt lat="47.23208" lon="6.06293">
        <ele>282.340027</ele>
        <time>2022-01-18T11:11:48.320Z</time>
      </trkpt>
      <trkpt lat="47.23216" lon="6.06239">
        <ele>276.50453</ele>
        <time>2022-01-18T11:12:35.204Z</time>
      </trkpt>
      <trkpt lat="47.23242" lon="6.06185">
        <ele>269.774902</ele>
        <time>2022-01-18T11:13:30.257Z</time>
      </trkpt>
      <trkpt lat="47.23232" lon="6.061">
        <ele>265.789086</ele>
        <time>2022-01-18T11:14:41.446Z</time>
      </trkpt>
      <trkpt lat="47.23234" lon="6.06068">
        <ele>264.299597</ele>
        <time>2022-01-18T11:15:06.587Z</time>
      </trkpt>
      <trkpt lat="47.23223" lon="6.06055">
        <ele>263.330844</ele>
        <time>2022-01-18T11:15:22.265Z</time>
      </trkpt>
      <trkpt lat="47.2321" lon="6.06015">
        <ele>261.287235</ele>
        <time>2022-01-18T11:15:55.156Z</time>
      </trkpt>
      <trkpt lat="47.23192" lon="6.0599">
        <ele>259.606162</ele>
        <time>2022-01-18T11:16:21.416Z</time>
      </trkpt>
      <trkpt lat="47.23218" lon="6.05943">
        <ele>257.748968</ele>
        <time>2022-01-18T11:17:05.634Z</time>
      </trkpt>
      <trkpt lat="47.23327" lon="6.06056">
        <ele>258.50181</ele>
        <time>2022-01-18T11:19:21.667Z</time>
      </trkpt>
      <trkpt lat="47.23394" lon="6.06086">
        <ele>259.413615</ele>
        <time>2022-01-18T11:20:40.727Z</time>
      </trkpt>
      <trkpt lat="47.23394" lon="6.06086">
        <ele>259.414984</ele>
        <time>2022-01-18T11:20:42.632Z</time>
      </trkpt>
      <trkpt lat="47.23394" lon="6.06086">
        <ele>259.416353</ele>
        <time>2022-01-18T11:20:45.420Z</time>
      </trkpt>
      <trkpt lat="47.23382" lon="6.06141">
        <ele>260.201981</ele>
        <time>2022-01-18T11:21:29.561Z</time>
      </trkpt>
      <trkpt lat="47.23444" lon="6.06159">
        <ele>261.47684</ele>
        <time>2022-01-18T11:22:38.386Z</time>
      </trkpt>
      <trkpt lat="47.23552" lon="6.06224">
        <ele>262.31784</ele>
        <time>2022-01-18T11:24:37.146Z</time>
      </trkpt>
      <trkpt lat="47.23624" lon="6.06246">
        <ele>262.31784</ele>
        <time>2022-01-18T11:25:53.785Z</time>
      </trkpt>
      <trkpt lat="47.23647" lon="6.06256">
        <ele>262.31784</ele>
        <time>2022-01-18T11:26:18.218Z</time>
      </trkpt>
      <trkpt lat="47.23674" lon="6.06273">
        <ele>262.31784</ele>
        <time>2022-01-18T11:26:47.763Z</time>
      </trkpt>
      <trkpt lat="47.23712" lon="6.06315">
        <ele>262.31784</ele>
        <time>2022-01-18T11:27:35.853Z</time>
      </trkpt>
      <trkpt lat="47.237" lon="6.06323">
        <ele>262.31784</ele>
        <time>2022-01-18T11:27:50.818Z</time>
      </trkpt>
      <trkpt lat="47.23695" lon="6.06319">
        <ele>262.31784</ele>
        <time>2022-01-18T11:27:56.788Z</time>
      </trkpt>
    </trkseg>
  </trk>
</gpx>